Accueil
METAR-TAF:

METAR-TAF

Aéroports :

Niederstetten, Allemagne

Base aérienne

latitude: 49-24N, longitude: 009-58E, altitude: 468 m

Observation

Le bulletin a été fait il y a 16 minutes, à 00:20 UTC
Vent 11 kt de est/nord-est
Température -5°C
Humidité 68%
Pression 1017 hPa
Visibilité 10 km ou plus

METAR: ETHN 240020Z 07011KT 9999 M05/M10 Q1017 BLU+

Heure: 01:36 (00:36 UTC)

Prévision

Le bulletin a été fait il y a 14 heures et 8 minutes, à 10:28 UTC
Prévision valable du 23 à 09 UTC au 23 à 18 UTC
Vent 15 kt de est/nord-est avec des rafales jusqu'à 25 kt
Visibilité: 1100 m
Ciel clair

TAF: ETHN 231028Z 2309/2318 06015G25KT 9999 NSW SKC CANCEL 1100

Observations et prévisions météorologiques de plus de 4000 aéroports (messages METAR et TAF).

Les stations disponibles sont représentées par des disques jaunes et rouges sur la carte.

Passer la souris dessus pour voir le nom de la station.

Cliquer dessus pour voir les observations et prévisions météorologiques.

Pour changer de carte: cliquez sur les boutons verts avec une croix noire pour zoomer, sur le bouton vert avec un tiret pour effectuer un zoom arrière, ou sur les flèches vertes pour les cartes adjacentes.


METAR-TAF: